createdAt,value
2018-07-23T00:00:43.224Z,23.37
2018-07-23T00:03:27.335Z,25.20
2018-07-23T00:06:08.789Z,24.07
2018-07-23T00:08:50.188Z,23.87
2018-07-23T00:11:32.084Z,24.93
2018-07-23T00:14:14.206Z,23.77
2018-07-23T00:16:56.740Z,22.13
2018-07-23T00:19:38.195Z,22.03
2018-07-23T00:22:19.644Z,23.17
2018-07-23T00:25:01.871Z,23.27
2018-07-23T00:27:43.511Z,21.97
2018-07-23T00:30:26.223Z,21.80
2018-07-23T00:33:08.027Z,21.13
2018-07-23T00:35:49.535Z,21.10
2018-07-23T00:38:32.105Z,22.03
2018-07-23T00:41:14.150Z,20.37
2018-07-23T00:43:56.590Z,20.67
2018-07-23T00:46:38.176Z,19.80
2018-07-23T00:49:20.282Z,19.40
2018-07-23T00:52:02.330Z,19.97
2018-07-23T00:54:47.801Z,20.87
2018-07-23T00:57:29.234Z,20.87
2018-07-23T01:00:10.685Z,20.70
2018-07-23T01:02:52.983Z,21.77
2018-07-23T01:05:36.216Z,20.50
2018-07-23T01:08:17.645Z,21.33
2018-07-23T01:10:59.242Z,20.77
2018-07-23T01:13:40.612Z,20.83
2018-07-23T01:16:23.066Z,20.83
2018-07-23T01:19:04.852Z,21.73
2018-07-23T01:21:46.311Z,20.13
2018-07-23T01:24:27.852Z,21.13
2018-07-23T01:27:09.424Z,22.87
2018-07-23T01:29:50.926Z,21.07
2018-07-23T01:32:32.528Z,20.57
2018-07-23T01:35:14.047Z,22.37
2018-07-23T01:37:57.335Z,21.77
2018-07-23T01:40:38.924Z,20.47
2018-07-23T01:43:20.551Z,21.97
2018-07-23T01:46:01.952Z,22.83
2018-07-23T01:48:43.377Z,22.87
2018-07-23T01:51:24.979Z,21.97
2018-07-23T01:54:06.408Z,22.93
2018-07-23T01:56:47.936Z,22.13
2018-07-23T02:02:54.120Z,23.73
2018-07-23T02:05:35.573Z,23.53
2018-07-23T02:08:17.100Z,24.00
2018-07-23T02:10:59.264Z,23.87
2018-07-23T02:13:40.783Z,23.83
2018-07-23T02:16:23.441Z,22.23
2018-07-23T02:19:05.057Z,23.40
2018-07-23T02:21:46.498Z,23.23
2018-07-23T02:24:27.823Z,23.50
2018-07-23T02:27:09.276Z,23.07
2018-07-23T02:29:52.439Z,23.33
2018-07-23T02:32:34.048Z,23.93
2018-07-23T02:35:15.623Z,23.97
2018-07-23T02:37:57.065Z,23.63
2018-07-23T02:40:38.651Z,22.80
2018-07-23T02:43:21.130Z,22.87
2018-07-23T02:46:02.709Z,23.03
2018-07-23T02:48:44.046Z,23.37
2018-07-23T02:51:26.139Z,24.10
2018-07-23T02:54:07.540Z,23.83
2018-07-23T02:56:50.933Z,22.83
2018-07-23T02:59:32.808Z,23.30
2018-07-23T03:02:14.263Z,22.70
2018-07-23T03:04:55.737Z,23.23
2018-07-23T03:07:37.346Z,24.17
2018-07-23T03:10:19.736Z,22.87
2018-07-23T03:13:01.184Z,22.37
2018-07-23T03:15:42.797Z,23.03
2018-07-23T03:18:24.830Z,22.33
2018-07-23T03:21:06.420Z,23.53
2018-07-23T03:23:48.001Z,25.67
2018-07-23T03:26:29.647Z,24.93
2018-07-23T03:29:11.466Z,24.07
2018-07-23T03:31:54.770Z,23.90
2018-07-23T03:34:36.220Z,24.37
2018-07-23T03:37:17.604Z,24.73
2018-07-23T03:39:59.461Z,23.23
2018-07-23T03:42:41.079Z,25.03
2018-07-23T03:45:23.415Z,24.90
2018-07-23T03:48:04.839Z,24.27
2018-07-23T03:50:46.523Z,24.67
2018-07-23T03:53:27.988Z,23.00
2018-07-23T03:56:09.325Z,22.33
2018-07-23T03:58:52.626Z,23.23
2018-07-23T04:01:34.035Z,23.77
2018-07-23T04:04:17.494Z,23.60
2018-07-23T04:06:59.189Z,24.70
2018-07-23T04:09:40.861Z,22.90
2018-07-23T04:12:23.741Z,23.10
2018-07-23T04:15:05.828Z,21.77
2018-07-23T04:18:03.906Z,23.10
2018-07-23T04:20:45.493Z,21.53
2018-07-23T04:23:27.044Z,23.00
2018-07-23T04:26:09.163Z,22.27
2018-07-23T04:28:51.446Z,23.53
2018-07-23T04:31:33.088Z,22.40
2018-07-23T04:34:14.571Z,20.50
2018-07-23T04:36:56.028Z,21.53
2018-07-23T04:39:37.728Z,21.70
2018-07-23T04:42:20.615Z,21.43
2018-07-23T04:45:02.653Z,20.57
2018-07-23T04:47:44.290Z,22.30
2018-07-23T04:50:25.798Z,22.53
2018-07-23T04:53:07.430Z,22.83
2018-07-23T04:55:49.712Z,24.90
2018-07-23T04:58:31.200Z,23.67
2018-07-23T05:01:12.754Z,25.77
2018-07-23T05:03:54.706Z,26.30
2018-07-23T05:06:36.353Z,25.00
2018-07-23T05:09:17.876Z,25.77
2018-07-23T05:12:00.442Z,26.60
2018-07-23T05:14:42.622Z,25.80
2018-07-23T05:17:24.841Z,25.97
2018-07-23T05:20:07.216Z,26.97
2018-07-23T05:22:49.489Z,26.10
2018-07-23T05:25:31.195Z,26.83
2018-07-23T05:28:12.806Z,26.03
2018-07-23T05:30:55.508Z,25.30
2018-07-23T05:33:39.957Z,25.17
2018-07-23T05:36:22.437Z,25.83
2018-07-23T05:39:08.192Z,25.80
2018-07-23T05:41:50.907Z,27.40
2018-07-23T05:44:32.442Z,26.60
2018-07-23T05:47:14.064Z,27.97
2018-07-23T05:49:55.555Z,27.50
2018-07-23T05:52:37.080Z,26.33
2018-07-23T05:55:19.590Z,27.70
2018-07-23T05:58:02.290Z,26.63
2018-07-23T06:00:43.828Z,26.53
2018-07-23T06:03:25.440Z,27.50
2018-07-23T06:06:07.116Z,25.47
2018-07-23T06:08:49.818Z,26.90
2018-07-23T06:11:32.215Z,25.63
2018-07-23T06:14:15.264Z,26.37
2018-07-23T06:16:56.692Z,26.77
2018-07-23T06:19:38.301Z,26.70
2018-07-23T06:22:20.805Z,26.20
2018-07-23T06:25:02.238Z,24.37
2018-07-23T06:27:44.425Z,25.43
2018-07-23T06:30:25.942Z,24.60
2018-07-23T06:33:12.891Z,24.17
2018-07-23T06:35:54.923Z,24.47
2018-07-23T06:38:37.176Z,24.73
2018-07-23T06:41:23.711Z,25.13
2018-07-23T06:44:05.868Z,24.87
2018-07-23T06:46:47.335Z,24.70
2018-07-23T06:49:29.465Z,24.10
2018-07-23T06:52:11.127Z,25.50
2018-07-23T06:54:53.493Z,24.40
2018-07-23T06:57:38.596Z,24.60
2018-07-23T07:00:25.638Z,24.03
2018-07-23T07:03:07.431Z,24.20
2018-07-23T07:05:49.640Z,23.33
2018-07-23T07:08:31.166Z,23.30
2018-07-23T07:11:12.612Z,23.40
2018-07-23T07:13:54.672Z,24.00
2018-07-23T07:16:36.124Z,22.87
2018-07-23T07:19:17.653Z,22.40
2018-07-23T07:21:59.228Z,21.97
2018-07-23T07:24:40.535Z,21.47
2018-07-23T07:27:22.399Z,22.43
2018-07-23T07:30:06.167Z,21.43
2018-07-23T07:32:48.326Z,20.40
2018-07-23T07:35:30.240Z,18.70
2018-07-23T07:38:15.328Z,19.67
2018-07-23T07:40:58.225Z,20.10
2018-07-23T07:43:40.525Z,20.20
2018-07-23T07:46:23.699Z,19.33
2018-07-23T07:49:05.012Z,19.07
2018-07-23T07:51:46.540Z,19.80
2018-07-23T07:54:28.029Z,19.07
2018-07-23T07:57:09.535Z,19.30
2018-07-23T07:59:52.484Z,20.83
2018-07-23T08:02:34.075Z,19.30
2018-07-23T08:05:17.623Z,18.37
2018-07-23T08:07:59.534Z,16.97
2018-07-23T08:10:41.038Z,18.27
2018-07-23T08:13:24.042Z,17.97
2018-07-23T08:16:05.662Z,17.93
2018-07-23T08:18:48.024Z,16.90
2018-07-23T08:21:29.960Z,16.60
2018-07-23T08:24:11.363Z,16.07
2018-07-23T08:26:53.663Z,16.30
2018-07-23T08:29:35.457Z,17.37
2018-07-23T08:32:17.076Z,16.80
2018-07-23T08:34:59.353Z,16.20
2018-07-23T08:37:41.273Z,15.43
2018-07-23T08:40:25.039Z,15.67
2018-07-23T08:43:06.766Z,16.17
2018-07-23T08:45:49.560Z,16.63
2018-07-23T08:48:31.827Z,14.63
2018-07-23T08:51:13.581Z,15.13
2018-07-23T08:53:55.196Z,15.67
2018-07-23T08:56:36.692Z,15.27
2018-07-23T08:59:18.907Z,14.63
2018-07-23T09:02:00.778Z,16.40
2018-07-23T09:04:42.931Z,14.13
2018-07-23T09:07:25.237Z,15.07
2018-07-23T09:10:07.028Z,14.43
2018-07-23T09:12:49.576Z,14.80
2018-07-23T09:15:31.068Z,16.67
2018-07-23T09:18:12.655Z,14.17
2018-07-23T09:20:54.583Z,15.17
2018-07-23T09:23:36.099Z,15.03
2018-07-23T09:26:17.532Z,14.87
2018-07-23T09:28:59.412Z,15.67
2018-07-23T09:31:41.046Z,14.40
2018-07-23T09:34:23.941Z,14.73
2018-07-23T09:37:05.452Z,14.13
2018-07-23T09:39:49.065Z,14.20
2018-07-23T09:42:31.011Z,13.33
2018-07-23T09:45:12.468Z,13.70
2018-07-23T09:47:56.123Z,13.77
2018-07-23T09:50:39.845Z,13.50
2018-07-23T09:53:23.348Z,15.87
2018-07-23T09:56:04.949Z,14.87
2018-07-23T09:58:47.017Z,13.73
2018-07-23T10:01:30.043Z,14.00
2018-07-23T10:04:11.525Z,13.77
2018-07-23T10:06:55.013Z,13.90
2018-07-23T10:09:36.664Z,14.10
2018-07-23T10:12:18.131Z,13.33
2018-07-23T10:14:59.936Z,14.90
2018-07-23T10:17:41.345Z,14.27
2018-07-23T10:20:24.635Z,13.37
2018-07-23T10:23:06.097Z,14.00
2018-07-23T10:25:47.716Z,13.67
2018-07-23T10:28:29.351Z,14.47
2018-07-23T10:31:12.237Z,13.73
2018-07-23T10:33:54.694Z,13.50
2018-07-23T10:36:36.159Z,12.93
2018-07-23T10:39:17.591Z,13.33
2018-07-23T10:41:59.590Z,14.40
2018-07-23T10:44:41.400Z,13.30
2018-07-23T10:47:24.427Z,12.17
2018-07-23T10:50:05.978Z,12.00
2018-07-23T10:52:52.352Z,12.23
2018-07-23T10:55:34.343Z,12.77
2018-07-23T10:58:16.004Z,11.77
2018-07-23T11:00:58.672Z,12.83
2018-07-23T11:03:40.155Z,13.00
2018-07-23T11:06:24.244Z,12.37
2018-07-23T11:09:08.304Z,12.90
2018-07-23T11:11:53.361Z,13.07
2018-07-23T11:14:35.036Z,13.00
2018-07-23T11:17:16.678Z,12.43
2018-07-23T11:20:00.427Z,13.43
2018-07-23T11:22:42.136Z,13.47
2018-07-23T11:25:39.177Z,12.87
2018-07-23T11:28:06.520Z,12.70
2018-07-23T11:30:47.960Z,13.47
2018-07-23T11:33:29.528Z,13.30
2018-07-23T11:36:11.608Z,12.30
2018-07-23T11:38:55.589Z,13.03
2018-07-23T11:41:37.483Z,13.20
2018-07-23T11:44:20.812Z,12.93
2018-07-23T11:47:05.968Z,13.03
2018-07-23T11:49:50.412Z,19.03
2018-07-23T11:52:32.226Z,12.80
2018-07-23T11:55:14.317Z,17.13
2018-07-23T11:57:56.448Z,12.20
2018-07-23T12:00:37.954Z,12.87
2018-07-23T12:03:20.509Z,12.27
2018-07-23T12:06:02.319Z,12.67
2018-07-23T12:08:43.899Z,12.87
2018-07-23T12:11:25.452Z,11.90
2018-07-23T12:14:07.809Z,10.67
2018-07-23T12:16:50.409Z,11.23
2018-07-23T12:19:31.932Z,11.30
2018-07-23T12:22:14.389Z,10.90
2018-07-23T12:24:57.135Z,11.00
2018-07-23T12:27:40.053Z,11.60
2018-07-23T12:30:23.293Z,10.80
2018-07-23T12:33:04.889Z,10.83
2018-07-23T12:35:46.393Z,10.23
2018-07-23T12:38:27.760Z,9.57
2018-07-23T12:41:09.520Z,9.47
2018-07-23T12:43:54.215Z,10.93
2018-07-23T12:46:35.783Z,10.77
2018-07-23T12:49:17.917Z,10.10
2018-07-23T12:51:59.460Z,8.93
2018-07-23T12:54:42.223Z,9.27
2018-07-23T12:57:24.570Z,9.27
2018-07-23T13:00:07.138Z,10.37
2018-07-23T13:02:49.563Z,11.03
2018-07-23T13:05:33.205Z,11.13
2018-07-23T13:08:15.308Z,11.07
2018-07-23T13:10:57.061Z,11.53
2018-07-23T13:13:38.479Z,11.13
2018-07-23T13:16:22.215Z,10.53
2018-07-23T13:19:04.961Z,10.70
2018-07-23T13:21:47.675Z,10.53
2018-07-23T13:24:30.388Z,10.73
2018-07-23T13:27:12.191Z,10.60
2018-07-23T13:29:58.013Z,11.17
2018-07-23T13:32:39.528Z,10.87
2018-07-23T13:35:23.980Z,11.43
2018-07-23T13:38:06.668Z,10.70
2018-07-23T13:40:48.421Z,11.63
2018-07-23T13:43:30.209Z,10.60
2018-07-23T13:46:13.241Z,10.57
2018-07-23T13:48:55.446Z,11.90
2018-07-23T13:51:37.772Z,11.73
2018-07-23T13:54:20.714Z,11.40
2018-07-23T13:57:03.986Z,24.47
2018-07-23T13:59:48.303Z,28.83
2018-07-23T14:02:29.851Z,13.07
2018-07-23T14:05:11.532Z,10.50
2018-07-23T14:07:54.728Z,10.30
2018-07-23T14:10:36.360Z,9.73
2018-07-23T14:13:19.607Z,9.60
2018-07-23T14:16:05.017Z,11.70
2018-07-23T14:18:46.523Z,9.20
2018-07-23T14:21:28.325Z,8.63
2018-07-23T14:24:09.647Z,8.97
2018-07-23T14:26:52.846Z,8.60
2018-07-23T14:29:35.503Z,8.60
2018-07-23T14:32:17.323Z,9.10
2018-07-23T14:34:59.543Z,9.43
2018-07-23T14:37:43.016Z,9.20
2018-07-23T14:40:25.558Z,8.50
2018-07-23T14:43:07.363Z,8.57
2018-07-23T14:45:53.472Z,8.50
2018-07-23T14:48:35.270Z,9.57
2018-07-23T14:51:17.040Z,10.33
2018-07-23T14:53:58.810Z,8.93
2018-07-23T14:56:40.377Z,8.37
2018-07-23T14:59:22.652Z,9.37
2018-07-23T15:02:04.388Z,8.80
2018-07-23T15:04:45.991Z,8.73
2018-07-23T15:07:27.408Z,7.93
2018-07-23T15:10:08.964Z,8.40
2018-07-23T15:12:51.459Z,8.20
2018-07-23T15:15:33.224Z,8.47
2018-07-23T15:18:15.070Z,8.77
2018-07-23T15:20:57.639Z,8.57
2018-07-23T15:23:39.281Z,8.40
2018-07-23T15:26:21.640Z,8.20
2018-07-23T15:29:03.386Z,8.57
2018-07-23T15:31:46.087Z,7.80
2018-07-23T15:34:27.740Z,7.53
2018-07-23T15:37:09.484Z,8.17
2018-07-23T15:39:51.695Z,7.77
2018-07-23T15:42:34.832Z,7.97
2018-07-23T15:45:17.192Z,8.07
2018-07-23T15:47:59.995Z,7.17
2018-07-23T15:50:41.744Z,8.20
2018-07-23T15:53:24.703Z,7.27
2018-07-23T15:56:07.046Z,7.37
2018-07-23T15:58:48.652Z,7.30
2018-07-23T16:01:31.805Z,7.33
2018-07-23T16:04:13.584Z,7.70
2018-07-23T16:06:55.781Z,9.33
2018-07-23T16:09:37.752Z,7.07
2018-07-23T16:12:21.554Z,7.33
2018-07-23T16:15:04.355Z,7.60
2018-07-23T16:17:45.994Z,6.40
2018-07-23T16:20:27.322Z,6.37
2018-07-23T16:23:09.827Z,6.50
2018-07-23T16:25:53.264Z,6.53
2018-07-23T16:28:34.977Z,5.30
2018-07-23T16:31:16.847Z,5.67
2018-07-23T16:33:58.588Z,5.80
2018-07-23T16:36:40.151Z,5.60
2018-07-23T16:39:22.345Z,5.37
2018-07-23T16:42:06.085Z,5.13
2018-07-23T16:44:47.778Z,4.97
2018-07-23T16:47:29.352Z,5.00
2018-07-23T16:50:12.407Z,5.73
2018-07-23T16:52:55.008Z,5.10
2018-07-23T16:55:36.669Z,5.20
2018-07-23T16:58:18.172Z,4.10
2018-07-23T17:01:00.687Z,4.63
2018-07-23T17:03:42.589Z,4.30
2018-07-23T17:06:24.691Z,4.57
2018-07-23T17:09:12.268Z,4.97
2018-07-23T17:11:54.947Z,4.80
2018-07-23T17:14:36.498Z,4.50
2018-07-23T17:17:19.197Z,4.17
2018-07-23T17:20:01.675Z,3.83
2018-07-23T17:22:43.019Z,4.03
2018-07-23T17:25:26.217Z,3.83
2018-07-23T17:28:07.983Z,4.60
2018-07-23T17:30:49.577Z,4.00
2018-07-23T17:33:31.205Z,4.07
2018-07-23T17:36:12.997Z,4.03
2018-07-23T17:38:56.176Z,4.23
2018-07-23T17:41:37.932Z,4.20
2018-07-23T17:44:19.471Z,3.97
2018-07-23T17:47:01.201Z,4.57
2018-07-23T17:49:42.675Z,4.57
2018-07-23T17:52:24.895Z,3.73
2018-07-23T17:55:07.987Z,3.73
2018-07-23T17:57:52.370Z,4.30
2018-07-23T18:00:34.535Z,3.97
2018-07-23T18:03:17.311Z,4.57
2018-07-23T18:06:00.445Z,3.90
2018-07-23T18:08:42.142Z,4.37
2018-07-23T18:11:24.381Z,4.40
2018-07-23T18:14:06.077Z,4.57
2018-07-23T18:16:47.519Z,4.97
2018-07-23T18:19:30.859Z,5.43
2018-07-23T18:22:12.303Z,5.10
2018-07-23T18:24:55.407Z,4.93
2018-07-23T18:27:37.447Z,4.50
2018-07-23T18:30:19.107Z,4.70
2018-07-23T18:33:01.327Z,4.90
2018-07-23T18:35:42.962Z,4.93
2018-07-23T18:38:24.891Z,5.27
2018-07-23T18:41:06.311Z,5.67
2018-07-23T18:43:47.960Z,5.17
2018-07-23T18:46:31.150Z,5.40
2018-07-23T18:49:31.510Z,6.33
2018-07-23T18:52:14.628Z,6.90
2018-07-23T18:54:58.367Z,7.67
2018-07-23T18:57:40.539Z,8.20
2018-07-23T19:00:22.312Z,13.20
2018-07-23T19:03:09.252Z,7.87
2018-07-23T19:05:53.126Z,7.93
2018-07-23T19:08:35.225Z,7.37
2018-07-23T19:11:16.834Z,7.60
2018-07-23T19:13:58.585Z,8.23
2018-07-23T19:16:41.043Z,8.13
2018-07-23T19:19:22.799Z,7.53
2018-07-23T19:22:05.085Z,8.70
2018-07-23T19:24:46.685Z,7.80
2018-07-23T19:27:28.644Z,8.07
2018-07-23T19:30:10.663Z,7.50
2018-07-23T19:32:52.136Z,7.77
2018-07-23T19:35:34.144Z,7.40
2018-07-23T19:38:17.774Z,7.43
2018-07-23T19:40:59.816Z,7.10
2018-07-23T19:43:41.744Z,6.47
2018-07-23T19:46:23.449Z,6.47
2018-07-23T19:49:05.885Z,6.97
2018-07-23T19:51:47.403Z,7.73
2018-07-23T19:54:28.999Z,7.17
2018-07-23T19:57:11.022Z,6.63
2018-07-23T19:59:52.755Z,6.53
2018-07-23T20:02:34.958Z,6.70
2018-07-23T20:05:17.216Z,6.57
2018-07-23T20:07:59.082Z,6.30
2018-07-23T20:10:40.809Z,7.10
2018-07-23T20:13:22.375Z,6.07
2018-07-23T20:16:06.154Z,7.07
2018-07-23T20:18:48.619Z,6.60
2018-07-23T20:21:30.219Z,6.67
2018-07-23T20:24:12.111Z,7.27
2018-07-23T20:26:53.411Z,6.80
2018-07-23T20:29:36.808Z,7.23
2018-07-23T20:32:19.067Z,7.60
2018-07-23T20:35:00.469Z,7.87
2018-07-23T20:37:42.715Z,7.70
2018-07-23T20:40:25.224Z,8.20
2018-07-23T20:43:07.666Z,8.50
2018-07-23T20:45:49.434Z,8.07
2018-07-23T20:48:30.987Z,7.93
2018-07-23T20:51:13.646Z,7.87
2018-07-23T20:53:56.031Z,7.87
2018-07-23T20:56:37.774Z,7.53
2018-07-23T20:59:19.075Z,7.60
2018-07-23T21:02:00.740Z,7.17
2018-07-23T21:04:42.870Z,6.80
2018-07-23T21:07:24.340Z,7.67
2018-07-23T21:10:07.718Z,6.80
2018-07-23T21:12:49.278Z,7.53
2018-07-23T21:15:36.154Z,6.70
2018-07-23T21:18:17.789Z,7.87
2018-07-23T21:20:59.326Z,6.90
2018-07-23T21:23:42.803Z,7.53
2018-07-23T21:26:24.124Z,7.43
2018-07-23T21:29:05.739Z,8.07
2018-07-23T21:31:47.298Z,8.13
2018-07-23T21:34:28.866Z,8.20
2018-07-23T21:37:12.640Z,8.70
2018-07-23T21:39:55.930Z,8.13
2018-07-23T21:42:37.536Z,8.70
2018-07-23T21:45:20.910Z,7.80
2018-07-23T21:48:02.797Z,7.60
2018-07-23T21:50:46.969Z,8.73
2018-07-23T21:53:28.514Z,8.67
2018-07-23T21:56:10.891Z,8.27
2018-07-23T21:58:52.298Z,9.23
2018-07-23T22:01:33.845Z,7.90
2018-07-23T22:04:17.032Z,7.17
2018-07-23T22:06:58.579Z,7.93
2018-07-23T22:09:40.190Z,7.70
2018-07-23T22:12:21.645Z,7.73
2018-07-23T22:15:03.178Z,7.97
2018-07-23T22:17:45.779Z,8.23
2018-07-23T22:20:27.399Z,7.60
2018-07-23T22:23:09.842Z,7.73
2018-07-23T22:25:55.656Z,7.67
2018-07-23T22:28:38.176Z,8.27
2018-07-23T22:31:20.824Z,8.00
2018-07-23T22:34:03.359Z,7.73
2018-07-23T22:36:45.882Z,8.03
2018-07-23T22:39:27.477Z,7.63
2018-07-23T22:42:14.187Z,7.90
2018-07-23T22:44:55.602Z,7.97
2018-07-23T22:47:37.126Z,7.37
2018-07-23T22:50:19.342Z,8.37
2018-07-23T22:53:01.768Z,7.73
2018-07-23T22:55:44.458Z,9.10
2018-07-23T22:58:27.210Z,8.83
2018-07-23T23:01:08.573Z,8.37
2018-07-23T23:03:50.128Z,8.03
2018-07-23T23:06:31.484Z,8.57
2018-07-23T23:09:13.020Z,8.20
2018-07-23T23:11:54.589Z,8.40
2018-07-23T23:14:35.874Z,8.70
2018-07-23T23:17:17.716Z,8.40
2018-07-23T23:19:59.135Z,8.37
2018-07-23T23:22:40.576Z,8.77
2018-07-23T23:25:22.182Z,8.93
2018-07-23T23:28:05.720Z,8.30
2018-07-23T23:30:48.998Z,8.63
2018-07-23T23:33:30.599Z,9.13
2018-07-23T23:36:12.182Z,9.00
2018-07-23T23:38:53.634Z,10.53
2018-07-23T23:41:35.058Z,10.83
2018-07-23T23:44:17.489Z,9.83
2018-07-23T23:46:59.049Z,10.40
2018-07-23T23:49:40.570Z,10.50
2018-07-23T23:52:22.105Z,9.83
2018-07-23T23:55:03.533Z,9.77
2018-07-23T23:57:47.424Z,10.50
